Terminal Aerodrome Forecast
Issued by NWS Lake Charles, LA

Home | Current Version | Previous Version | Text Only | Print | Product List | Glossary On
Versions: 1 2 3 4 5 6 7 8 9 10 11 12 13 14 15 16 17 18
342
FTUS44 KLCH 291720
TAFBPT
TAF
KBPT 291720Z 2918/3018 09011KT P6SM VCTS SCT025CB BKN050
      TEMPO 2918/2922 3SM TSRA BKN025CB
     FM300100 07005KT P6SM FEW050 BKN200=

USA.gov is the U.S. government's official web portal to all federal, state and local government web resources and services.